createdAt,value
2023-03-21T00:00:05.990Z,100626.61
2023-03-21T00:02:58.336Z,100624.90
2023-03-21T00:05:51.978Z,100625.24
2023-03-21T00:08:50.468Z,100628.75
2023-03-21T00:11:23.554Z,100620.46
2023-03-21T00:13:58.578Z,100625.71
2023-03-21T00:16:36.738Z,100630.60
2023-03-21T00:19:13.180Z,100610.77
2023-03-21T00:22:05.504Z,100623.42
2023-03-21T00:24:39.454Z,100624.41
2023-03-21T00:27:39.725Z,100622.61
2023-03-21T00:30:07.583Z,100618.01
2023-03-21T00:32:55.189Z,100618.77
2023-03-21T00:36:06.450Z,100614.95
2023-03-21T00:38:21.545Z,100617.59
2023-03-21T00:40:55.087Z,100621.27
2023-03-21T00:43:30.220Z,100620.49
2023-03-21T00:46:03.109Z,100626.72
2023-03-21T00:48:35.975Z,100615.66
2023-03-21T00:51:16.662Z,100614.19
2023-03-21T00:53:49.782Z,100612.04
2023-03-21T00:56:22.395Z,100615.85
2023-03-21T00:58:55.824Z,100623.43
2023-03-21T01:01:34.695Z,100614.25
2023-03-21T01:04:14.609Z,100614.32
2023-03-21T01:06:48.741Z,100607.73
2023-03-21T01:09:24.261Z,100617.36
2023-03-21T01:11:57.468Z,100621.48
2023-03-21T01:14:31.610Z,100621.16
2023-03-21T01:17:04.522Z,100617.72
2023-03-21T01:19:51.117Z,100619.42
2023-03-21T01:22:25.576Z,100616.90
2023-03-21T01:25:08.870Z,100607.95
2023-03-21T01:27:46.380Z,100620.02
2023-03-21T01:30:23.016Z,100614.20
2023-03-21T01:32:57.226Z,100616.81
2023-03-21T01:35:34.463Z,100615.60
2023-03-21T01:38:11.092Z,100623.17
2023-03-21T01:40:45.794Z,100620.95
2023-03-21T01:43:33.243Z,100626.19
2023-03-21T01:46:32.328Z,100624.38
2023-03-21T01:49:26.224Z,100621.67
2023-03-21T01:52:15.194Z,100618.98
2023-03-21T01:54:51.345Z,100610.29
2023-03-21T01:57:43.610Z,100619.15
2023-03-21T02:00:21.657Z,100608.45
2023-03-21T02:03:11.068Z,100607.46
2023-03-21T02:06:04.996Z,100612.40
2023-03-21T02:08:41.349Z,100610.50
2023-03-21T02:11:19.140Z,100611.02
2023-03-21T02:14:01.051Z,100613.23
2023-03-21T02:16:51.858Z,100608.11
2023-03-21T02:20:01.065Z,100610.58
2023-03-21T02:22:59.727Z,100610.55
2023-03-21T02:26:04.779Z,100599.60
2023-03-21T02:28:43.374Z,100603.18
2023-03-21T02:31:32.361Z,100606.88
2023-03-21T02:34:38.452Z,100611.26
2023-03-21T02:37:26.057Z,100612.96
2023-03-21T02:40:11.320Z,100616.55
2023-03-21T02:43:01.479Z,100611.06
2023-03-21T02:45:46.675Z,100613.59
2023-03-21T02:48:31.184Z,100609.90
2023-03-21T02:51:12.679Z,100608.67
2023-03-21T02:53:53.318Z,100609.33
2023-03-21T02:56:34.777Z,100608.20
2023-03-21T02:59:10.372Z,100611.14
2023-03-21T03:01:43.406Z,100610.01
2023-03-21T03:04:25.193Z,100612.88
2023-03-21T03:07:25.651Z,100614.45
2023-03-21T03:10:23.311Z,100608.83
2023-03-21T03:13:09.567Z,100612.63
2023-03-21T03:15:48.818Z,100619.70
2023-03-21T03:18:30.897Z,100617.96
2023-03-21T03:21:18.163Z,100612.84
2023-03-21T03:23:54.911Z,100618.23
2023-03-21T03:26:32.163Z,100615.92
2023-03-21T03:29:09.096Z,100612.30
2023-03-21T03:31:46.278Z,100614.42
2023-03-21T03:34:22.365Z,100617.38
2023-03-21T03:36:58.572Z,100609.67
2023-03-21T03:39:37.150Z,100621.16
2023-03-21T03:42:27.600Z,100625.41
2023-03-21T03:45:07.037Z,100623.05
2023-03-21T03:47:55.993Z,100621.80
2023-03-21T03:50:33.664Z,100623.72
2023-03-21T03:53:18.533Z,100621.84
2023-03-21T03:55:51.269Z,100621.61
2023-03-21T03:58:36.092Z,100620.02
2023-03-21T04:01:17.169Z,100624.91
2023-03-21T04:03:58.379Z,100621.14
2023-03-21T04:06:36.382Z,100609.17
2023-03-21T04:09:20.538Z,100625.36
2023-03-21T04:11:55.545Z,100628.55
2023-03-21T04:14:42.089Z,100626.67
2023-03-21T04:17:17.600Z,100631.13
2023-03-21T04:19:55.547Z,100632.94
2023-03-21T04:22:31.350Z,100632.25
2023-03-21T04:25:05.409Z,100632.85
2023-03-21T04:27:38.643Z,100636.52
2023-03-21T04:30:29.712Z,100640.92
2023-03-21T04:33:12.366Z,100639.05
2023-03-21T04:35:46.210Z,100643.16
2023-03-21T04:38:19.213Z,100632.80
2023-03-21T04:40:52.275Z,100642.65
2023-03-21T04:43:25.233Z,100642.61
2023-03-21T04:45:59.575Z,100639.93
2023-03-21T04:48:31.270Z,100641.20
2023-03-21T04:51:06.089Z,100639.98
2023-03-21T04:53:39.839Z,100640.73
2023-03-21T04:56:14.166Z,100641.33
2023-03-21T04:58:47.174Z,100643.22
2023-03-21T05:01:20.912Z,100640.61
2023-03-21T05:03:53.909Z,100646.59
2023-03-21T05:06:27.950Z,100646.16
2023-03-21T05:09:05.587Z,100649.09
2023-03-21T05:11:41.108Z,100647.91
2023-03-21T05:14:16.174Z,100652.55
2023-03-21T05:16:53.389Z,100653.68
2023-03-21T05:19:34.953Z,100634.85
2023-03-21T05:22:11.299Z,100654.20
2023-03-21T05:24:50.221Z,100656.25
2023-03-21T05:27:46.325Z,100655.48
2023-03-21T05:30:21.540Z,100653.19
2023-03-21T05:32:53.134Z,100656.51
2023-03-21T05:35:26.961Z,100659.28
2023-03-21T05:38:00.704Z,100657.48
2023-03-21T05:40:36.195Z,100661.61
2023-03-21T05:43:10.209Z,100664.87
2023-03-21T05:45:49.166Z,100656.95
2023-03-21T05:48:22.465Z,100669.34
2023-03-21T05:51:14.240Z,100665.35
2023-03-21T05:53:47.437Z,100651.13
2023-03-21T05:56:22.244Z,100656.05
2023-03-21T05:59:01.729Z,100672.83
2023-03-21T06:01:35.859Z,100672.96
2023-03-21T06:04:17.232Z,100673.77
2023-03-21T06:06:51.047Z,100674.89
2023-03-21T06:09:24.388Z,100680.30
2023-03-21T06:12:01.581Z,100673.83
2023-03-21T06:14:55.152Z,100676.33
2023-03-21T06:17:34.815Z,100678.55
2023-03-21T06:20:13.060Z,100680.09
2023-03-21T06:22:50.026Z,100682.25
2023-03-21T06:25:23.120Z,100679.86
2023-03-21T06:27:56.742Z,100683.17
2023-03-21T06:30:29.604Z,100684.81
2023-03-21T06:33:17.954Z,100687.34
2023-03-21T06:35:56.424Z,100684.95
2023-03-21T06:38:29.756Z,100672.45
2023-03-21T06:41:04.781Z,100680.77
2023-03-21T06:43:40.050Z,100686.55
2023-03-21T06:46:14.075Z,100690.34
2023-03-21T06:48:47.544Z,100685.33
2023-03-21T06:51:20.690Z,100690.48
2023-03-21T06:54:03.112Z,100693.29
2023-03-21T06:56:50.349Z,100698.48
2023-03-21T06:59:28.581Z,100694.38
2023-03-21T07:02:07.564Z,100697.24
2023-03-21T07:04:44.879Z,100697.77
2023-03-21T07:07:26.125Z,100699.71
2023-03-21T07:09:59.303Z,100701.71
2023-03-21T07:12:34.349Z,100705.14
2023-03-21T07:15:15.687Z,100712.36
2023-03-21T07:17:49.352Z,100715.71
2023-03-21T07:20:22.363Z,100713.24
2023-03-21T07:22:55.079Z,100717.36
2023-03-21T07:25:28.336Z,100719.45
2023-03-21T07:28:01.801Z,100719.95
2023-03-21T07:30:34.857Z,100720.97
2023-03-21T07:33:08.741Z,100723.86
2023-03-21T07:35:41.994Z,100726.65
2023-03-21T07:38:16.928Z,100726.34
2023-03-21T07:40:50.602Z,100729.19
2023-03-21T07:43:23.690Z,100731.70
2023-03-21T07:46:01.671Z,100728.11
2023-03-21T07:48:34.620Z,100735.23
2023-03-21T07:51:07.993Z,100717.14
2023-03-21T07:53:42.069Z,100734.08
2023-03-21T07:56:14.967Z,100730.75
2023-03-21T07:58:47.632Z,100730.42
2023-03-21T08:01:22.120Z,100731.92
2023-03-21T08:03:55.122Z,100731.02
2023-03-21T08:06:32.477Z,100732.52
2023-03-21T08:09:06.001Z,100732.76
2023-03-21T08:11:38.816Z,100734.97
2023-03-21T08:14:11.868Z,100714.52
2023-03-21T08:16:45.005Z,100739.84
2023-03-21T08:19:18.840Z,100738.38
2023-03-21T08:21:52.221Z,100743.02
2023-03-21T08:24:24.641Z,100741.77
2023-03-21T08:26:57.371Z,100747.42
2023-03-21T08:29:30.231Z,100750.44
2023-03-21T08:32:03.389Z,100749.92
2023-03-21T08:34:36.628Z,100751.25
2023-03-21T08:37:09.444Z,100750.67
2023-03-21T08:39:42.119Z,100755.77
2023-03-21T08:42:15.176Z,100753.89
2023-03-21T08:44:48.068Z,100757.89
2023-03-21T08:47:20.885Z,100761.89
2023-03-21T08:49:53.488Z,100759.48
2023-03-21T08:52:27.226Z,100749.50
2023-03-21T08:54:59.765Z,100756.30
2023-03-21T08:57:32.619Z,100762.33
2023-03-21T09:00:12.246Z,100765.80
2023-03-21T09:02:46.009Z,100766.93
2023-03-21T09:05:19.619Z,100766.48
2023-03-21T09:07:52.963Z,100763.55
2023-03-21T09:10:25.893Z,100754.55
2023-03-21T09:12:59.033Z,100769.52
2023-03-21T09:15:31.998Z,100772.84
2023-03-21T09:18:16.069Z,100773.15
2023-03-21T09:20:50.534Z,100773.37
2023-03-21T09:23:23.698Z,100774.05
2023-03-21T09:25:56.492Z,100774.50
2023-03-21T09:28:29.577Z,100770.35
2023-03-21T09:31:04.125Z,100776.16
2023-03-21T09:33:37.343Z,100778.49
2023-03-21T09:36:14.599Z,100779.45
2023-03-21T09:38:48.285Z,100779.59
2023-03-21T09:41:33.565Z,100781.69
2023-03-21T09:44:23.136Z,100777.67
2023-03-21T09:47:02.679Z,100775.88
2023-03-21T09:49:41.804Z,100772.14
2023-03-21T09:52:20.390Z,100770.49
2023-03-21T09:54:53.966Z,100768.59
2023-03-21T09:57:33.470Z,100767.58
2023-03-21T10:00:15.976Z,100763.85
2023-03-21T10:02:51.964Z,100766.67
2023-03-21T10:05:27.885Z,100764.66
2023-03-21T10:08:04.740Z,100765.29
2023-03-21T10:10:41.706Z,100766.21
2023-03-21T10:13:19.126Z,100760.95
2023-03-21T10:15:51.932Z,100760.14
2023-03-21T10:18:28.825Z,100757.63
2023-03-21T10:21:02.565Z,100759.42
2023-03-21T10:23:35.304Z,100761.22
2023-03-21T10:26:10.283Z,100756.02
2023-03-21T10:28:53.078Z,100761.86
2023-03-21T10:31:30.285Z,100767.20
2023-03-21T10:37:36.519Z,100761.92
2023-03-21T10:40:16.594Z,100760.02
2023-03-21T10:42:49.295Z,100759.90
2023-03-21T10:45:23.733Z,100757.67
2023-03-21T10:47:58.407Z,100759.85
2023-03-21T10:50:30.798Z,100760.46
2023-03-21T10:53:04.636Z,100761.11
2023-03-21T10:55:42.113Z,100762.67
2023-03-21T10:58:25.377Z,100759.40
2023-03-21T11:01:02.702Z,100755.30
2023-03-21T11:03:38.541Z,100750.64
2023-03-21T11:06:18.352Z,100739.92
2023-03-21T11:08:55.611Z,100747.61
2023-03-21T11:11:34.466Z,100751.30
2023-03-21T11:14:09.403Z,100748.70
2023-03-21T11:16:43.880Z,100745.20
2023-03-21T11:19:18.319Z,100748.17
2023-03-21T11:21:51.226Z,100742.64
2023-03-21T11:24:24.871Z,100743.89
2023-03-21T11:26:59.123Z,100743.88
2023-03-21T11:29:34.265Z,100740.66
2023-03-21T11:32:13.981Z,100735.44
2023-03-21T11:34:50.038Z,100737.23
2023-03-21T11:37:27.212Z,100736.95
2023-03-21T11:40:19.234Z,100722.18
2023-03-21T11:42:53.381Z,100732.20
2023-03-21T11:45:28.346Z,100727.27
2023-03-21T11:48:02.734Z,100723.65
2023-03-21T11:50:38.656Z,100726.36
2023-03-21T11:53:28.071Z,100723.04
2023-03-21T11:56:13.608Z,100717.34
2023-03-21T11:59:01.324Z,100711.33
2023-03-21T12:01:43.938Z,100708.65
2023-03-21T12:04:35.414Z,100710.62
2023-03-21T12:07:20.662Z,100712.21
2023-03-21T12:10:01.206Z,100712.05
2023-03-21T12:12:46.072Z,100712.39
2023-03-21T12:15:26.242Z,100708.90
2023-03-21T12:18:08.250Z,100710.31
2023-03-21T12:20:46.323Z,100694.73
2023-03-21T12:23:44.073Z,100697.55
2023-03-21T12:26:27.142Z,100700.58
2023-03-21T12:29:15.683Z,100692.59
2023-03-21T12:31:56.973Z,100679.29
2023-03-21T12:34:44.178Z,100688.21
2023-03-21T12:37:25.787Z,100688.89
2023-03-21T12:40:07.580Z,100688.30
2023-03-21T12:43:01.670Z,100684.09
2023-03-21T12:45:46.698Z,100664.89
2023-03-21T12:48:27.298Z,100679.05
2023-03-21T12:51:03.823Z,100675.91
2023-03-21T12:53:45.848Z,100674.91
2023-03-21T12:56:24.049Z,100672.91
2023-03-21T12:59:03.333Z,100671.26
2023-03-21T13:01:40.282Z,100670.73
2023-03-21T13:04:29.760Z,100667.66
2023-03-21T13:07:04.394Z,100664.86
2023-03-21T13:09:40.529Z,100661.93
2023-03-21T13:12:27.205Z,100652.36
2023-03-21T13:15:31.497Z,100651.88
2023-03-21T13:18:13.763Z,100649.50
2023-03-21T13:20:50.628Z,100647.44
2023-03-21T13:23:25.633Z,100649.77
2023-03-21T13:26:00.420Z,100647.48
2023-03-21T13:28:32.556Z,100644.06
2023-03-21T13:31:23.743Z,100639.96
2023-03-21T13:34:00.423Z,100638.77
2023-03-21T13:36:37.954Z,100634.50
2023-03-21T13:39:21.907Z,100629.44
2023-03-21T13:41:56.169Z,100626.33
2023-03-21T13:44:40.992Z,100625.13
2023-03-21T13:47:44.378Z,100626.26
2023-03-21T13:50:38.099Z,100624.97
2023-03-21T13:53:27.375Z,100621.79
2023-03-21T13:56:10.693Z,100620.41
2023-03-21T13:58:55.406Z,100616.05
2023-03-21T14:01:35.786Z,100616.77
2023-03-21T14:04:17.533Z,100619.02
2023-03-21T14:06:56.412Z,100607.98
2023-03-21T14:09:35.029Z,100621.69
2023-03-21T14:12:12.438Z,100618.88
2023-03-21T14:14:48.058Z,100621.01
2023-03-21T14:17:26.686Z,100616.28
2023-03-21T14:20:11.376Z,100615.63
2023-03-21T14:22:47.593Z,100616.64
2023-03-21T14:25:21.901Z,100608.67
2023-03-21T14:27:59.738Z,100605.78
2023-03-21T14:30:36.164Z,100600.59
2023-03-21T14:33:17.420Z,100598.48
2023-03-21T14:35:51.060Z,100597.77
2023-03-21T14:38:26.510Z,100592.55
2023-03-21T14:40:59.424Z,100591.79
2023-03-21T14:43:34.242Z,100586.23
2023-03-21T14:46:07.988Z,100585.86
2023-03-21T14:48:41.305Z,100580.69
2023-03-21T14:51:14.553Z,100582.31
2023-03-21T14:53:48.092Z,100585.73
2023-03-21T14:56:25.290Z,100578.47
2023-03-21T14:58:58.057Z,100587.66
2023-03-21T15:01:34.838Z,100588.71
2023-03-21T15:04:09.837Z,100588.10
2023-03-21T15:06:51.778Z,100585.45
2023-03-21T15:09:28.331Z,100586.63
2023-03-21T15:12:01.572Z,100584.46
2023-03-21T15:14:36.839Z,100568.73
2023-03-21T15:17:11.523Z,100580.65
2023-03-21T15:19:43.799Z,100579.67
2023-03-21T15:22:25.104Z,100579.98
2023-03-21T15:25:04.547Z,100578.35
2023-03-21T15:27:42.302Z,100579.62
2023-03-21T15:30:23.833Z,100576.88
2023-03-21T15:32:57.000Z,100578.98
2023-03-21T15:35:34.722Z,100577.75
2023-03-21T15:38:07.566Z,100578.36
2023-03-21T15:40:40.670Z,100573.83
2023-03-21T15:43:18.995Z,100574.29
2023-03-21T15:45:56.413Z,100558.13
2023-03-21T15:48:30.518Z,100576.27
2023-03-21T15:51:07.581Z,100580.66
2023-03-21T15:53:44.919Z,100576.80
2023-03-21T15:56:17.803Z,100572.47
2023-03-21T15:58:53.549Z,100574.85
2023-03-21T16:01:26.703Z,100577.39
2023-03-21T16:04:04.335Z,100577.40
2023-03-21T16:06:39.682Z,100567.90
2023-03-21T16:09:22.178Z,100569.10
2023-03-21T16:11:56.554Z,100570.39
2023-03-21T16:14:29.959Z,100566.85
2023-03-21T16:17:02.892Z,100558.58
2023-03-21T16:19:35.982Z,100556.29
2023-03-21T16:22:12.153Z,100552.48
2023-03-21T16:24:45.253Z,100557.08
2023-03-21T16:27:20.186Z,100556.85
2023-03-21T16:29:51.271Z,100559.70
2023-03-21T16:32:24.201Z,100544.67
2023-03-21T16:34:56.983Z,100526.48
2023-03-21T16:37:29.944Z,100555.38
2023-03-21T16:40:05.904Z,100560.23
2023-03-21T16:42:38.818Z,100559.57
2023-03-21T16:45:12.718Z,100555.52
2023-03-21T16:47:45.815Z,100557.12
2023-03-21T16:50:31.811Z,100558.02
2023-03-21T16:53:05.696Z,100558.61
2023-03-21T16:55:39.473Z,100555.17
2023-03-21T16:58:15.914Z,100555.11
2023-03-21T17:00:48.888Z,100553.58
2023-03-21T17:03:22.139Z,100557.43
2023-03-21T17:05:54.863Z,100553.55
2023-03-21T17:08:29.246Z,100555.92
2023-03-21T17:11:06.477Z,100556.65
2023-03-21T17:13:39.345Z,100554.50
2023-03-21T17:16:12.911Z,100551.71
2023-03-21T17:18:46.325Z,100554.48
2023-03-21T17:21:21.153Z,100553.59
2023-03-21T17:23:56.684Z,100555.58
2023-03-21T17:26:30.972Z,100553.46
2023-03-21T17:29:04.246Z,100555.27
2023-03-21T17:42:11.664Z,100561.25
2023-03-21T17:44:44.246Z,100557.45
2023-03-21T17:47:17.695Z,100557.01
2023-03-21T17:49:51.664Z,100558.10
2023-03-21T17:52:24.815Z,100554.38
2023-03-21T17:54:58.745Z,100557.90
2023-03-21T17:57:31.645Z,100545.84
2023-03-21T18:00:10.014Z,100557.30
2023-03-21T18:02:44.656Z,100558.58
2023-03-21T18:05:17.953Z,100556.40
2023-03-21T18:08:09.428Z,100556.63
2023-03-21T18:10:43.062Z,100557.49
2023-03-21T18:13:16.566Z,100558.46
2023-03-21T18:15:50.691Z,100561.44
2023-03-21T18:18:23.553Z,100563.41
2023-03-21T18:20:58.332Z,100568.02
2023-03-21T18:23:32.372Z,100569.09
2023-03-21T18:26:05.519Z,100574.11
2023-03-21T18:28:39.995Z,100569.54
2023-03-21T18:31:19.826Z,100568.88
2023-03-21T18:33:52.945Z,100562.67
2023-03-21T18:36:28.611Z,100566.75
2023-03-21T18:39:03.522Z,100553.46
2023-03-21T18:41:37.666Z,100573.37
2023-03-21T18:44:17.448Z,100568.41
2023-03-21T18:46:51.790Z,100562.85
2023-03-21T18:50:05.985Z,100560.74
2023-03-21T18:52:18.221Z,100560.30
2023-03-21T18:54:51.074Z,100560.58
2023-03-21T18:57:36.516Z,100564.17
2023-03-21T19:00:13.993Z,100550.45
2023-03-21T19:02:50.830Z,100561.77
2023-03-21T19:05:26.042Z,100556.95
2023-03-21T19:07:58.948Z,100555.97
2023-03-21T19:10:31.734Z,100553.42
2023-03-21T19:13:04.608Z,100556.67
2023-03-21T19:15:38.591Z,100556.84
2023-03-21T19:18:37.907Z,100556.70
2023-03-21T19:21:06.447Z,100552.55
2023-03-21T19:24:19.412Z,100553.02
2023-03-21T19:26:33.839Z,100550.86
2023-03-21T19:29:07.260Z,100534.80
2023-03-21T19:31:40.249Z,100537.16
2023-03-21T19:34:13.926Z,100541.63
2023-03-21T19:36:51.566Z,100538.64
2023-03-21T19:39:25.796Z,100537.10
2023-03-21T19:42:14.959Z,100533.80
2023-03-21T19:44:49.347Z,100537.55
2023-03-21T19:47:22.533Z,100531.75
2023-03-21T19:50:40.797Z,100524.80
2023-03-21T19:52:48.684Z,100515.96
2023-03-21T19:55:21.546Z,100514.52
2023-03-21T19:57:54.140Z,100507.44
2023-03-21T20:00:27.632Z,100511.22
2023-03-21T20:03:00.975Z,100510.96
2023-03-21T20:05:34.023Z,100514.80
2023-03-21T20:08:10.624Z,100518.52
2023-03-21T20:10:46.526Z,100503.67
2023-03-21T20:13:19.121Z,100518.79
2023-03-21T20:15:55.183Z,100520.70
2023-03-21T20:18:29.883Z,100521.88
2023-03-21T20:21:04.442Z,100516.38
2023-03-21T20:23:39.090Z,100517.74
2023-03-21T20:26:14.200Z,100517.72
2023-03-21T20:29:01.208Z,100520.08
2023-03-21T20:31:41.719Z,100516.41
2023-03-21T20:34:14.781Z,100514.13
2023-03-21T20:36:48.363Z,100517.08
2023-03-21T20:39:21.407Z,100517.38
2023-03-21T20:41:54.964Z,100518.86
2023-03-21T20:44:51.979Z,100504.02
2023-03-21T20:47:20.677Z,100519.94
2023-03-21T20:49:55.172Z,100516.51
2023-03-21T20:52:57.493Z,100497.70
2023-03-21T20:55:22.606Z,100502.46
2023-03-21T20:57:56.304Z,100510.41
2023-03-21T21:00:29.680Z,100519.58
2023-03-21T21:03:04.178Z,100520.64
2023-03-21T21:05:38.277Z,100522.08
2023-03-21T21:08:12.571Z,100519.69
2023-03-21T21:11:24.294Z,100511.77
2023-03-21T21:13:39.022Z,100509.36
2023-03-21T21:16:13.185Z,100503.95
2023-03-21T21:18:46.366Z,100477.61
2023-03-21T21:21:19.298Z,100490.70
2023-03-21T21:23:52.046Z,100474.63
2023-03-21T21:26:25.065Z,100487.77
2023-03-21T21:29:00.474Z,100486.75
2023-03-21T21:31:35.849Z,100485.91
2023-03-21T21:34:09.156Z,100485.52
2023-03-21T21:36:43.211Z,100482.61
2023-03-21T21:39:17.228Z,100482.60
2023-03-21T21:41:50.133Z,100479.89
2023-03-21T21:44:23.064Z,100481.83
2023-03-21T21:46:57.720Z,100478.67
2023-03-21T21:49:30.219Z,100479.11
2023-03-21T21:52:05.999Z,100476.92
2023-03-21T21:54:39.417Z,100476.69
2023-03-21T21:57:12.137Z,100475.61
2023-03-21T21:59:45.240Z,100475.24
2023-03-21T22:02:19.784Z,100476.64
2023-03-21T22:04:51.642Z,100477.23
2023-03-21T22:07:24.964Z,100474.73
2023-03-21T22:09:58.014Z,100473.55
2023-03-21T22:12:30.806Z,100470.33
2023-03-21T22:15:04.119Z,100466.98
2023-03-21T22:17:37.740Z,100456.83
2023-03-21T22:20:12.932Z,100462.93
2023-03-21T22:22:46.105Z,100446.98
2023-03-21T22:25:19.865Z,100456.64
2023-03-21T22:27:52.349Z,100452.70
2023-03-21T22:30:25.570Z,100450.86
2023-03-21T22:33:08.790Z,100451.52
2023-03-21T22:35:43.269Z,100450.85
2023-03-21T22:38:18.048Z,100446.45
2023-03-21T22:40:56.565Z,100444.73
2023-03-21T22:43:29.229Z,100445.75
2023-03-21T22:46:02.696Z,100447.27
2023-03-21T22:48:36.372Z,100445.76
2023-03-21T22:51:10.495Z,100434.38
2023-03-21T22:53:43.241Z,100437.69
2023-03-21T22:56:16.472Z,100440.19
2023-03-21T22:58:49.228Z,100438.88
2023-03-21T23:01:22.373Z,100439.81
2023-03-21T23:03:55.099Z,100443.33
2023-03-21T23:06:28.326Z,100441.17
2023-03-21T23:09:01.016Z,100441.91
2023-03-21T23:11:33.703Z,100410.63
2023-03-21T23:14:08.427Z,100441.54
2023-03-21T23:16:41.114Z,100441.35
2023-03-21T23:19:14.166Z,100445.20
2023-03-21T23:21:47.474Z,100441.44
2023-03-21T23:24:20.561Z,100444.55
2023-03-21T23:26:53.328Z,100439.38
2023-03-21T23:29:25.842Z,100437.48
2023-03-21T23:31:58.582Z,100428.02
2023-03-21T23:34:31.654Z,100434.19
2023-03-21T23:37:04.489Z,100429.14
2023-03-21T23:39:37.341Z,100423.02
2023-03-21T23:42:10.174Z,100420.86
2023-03-21T23:44:42.970Z,100414.96
2023-03-21T23:47:16.940Z,100413.56
2023-03-21T23:49:52.816Z,100406.35
2023-03-21T23:52:26.220Z,100409.48
2023-03-21T23:54:59.145Z,100405.26
2023-03-21T23:57:31.992Z,100398.01
